sensor_id;sensor_type;location;lat;lon;timestamp;P1;durP1;ratioP1;P2;durP2;ratioP2
31224;SDS011;17847;31.524;74.366;2023-08-21T00:00:26;43.88;;;39.17;;
31224;SDS011;17847;31.524;74.366;2023-08-21T00:02:55;46.88;;;40.75;;
31224;SDS011;17847;31.524;74.366;2023-08-21T00:05:25;44.42;;;39.28;;
31224;SDS011;17847;31.524;74.366;2023-08-21T00:07:54;46.53;;;40.97;;
31224;SDS011;17847;31.524;74.366;2023-08-21T00:10:24;45.55;;;39.58;;
31224;SDS011;17847;31.524;74.366;2023-08-21T00:12:53;45.00;;;40.20;;
31224;SDS011;17847;31.524;74.366;2023-08-21T00:15:22;47.78;;;40.92;;
31224;SDS011;17847;31.524;74.366;2023-08-21T00:18:12;47.78;;;39.42;;
31224;SDS011;17847;31.524;74.366;2023-08-21T00:20:41;44.47;;;39.58;;
31224;SDS011;17847;31.524;74.366;2023-08-21T00:23:11;43.97;;;38.95;;
31224;SDS011;17847;31.524;74.366;2023-08-21T00:25:42;48.15;;;40.78;;
31224;SDS011;17847;31.524;74.366;2023-08-21T00:28:15;47.92;;;40.53;;
31224;SDS011;17847;31.524;74.366;2023-08-21T00:30:46;55.40;;;42.20;;
31224;SDS011;17847;31.524;74.366;2023-08-21T00:33:15;46.25;;;40.35;;
31224;SDS011;17847;31.524;74.366;2023-08-21T00:35:44;55.63;;;42.75;;
31224;SDS011;17847;31.524;74.366;2023-08-21T00:38:15;47.97;;;39.65;;
31224;SDS011;17847;31.524;74.366;2023-08-21T00:40:45;51.13;;;42.28;;
31224;SDS011;17847;31.524;74.366;2023-08-21T00:43:15;48.60;;;41.45;;
31224;SDS011;17847;31.524;74.366;2023-08-21T00:45:45;48.00;;;39.28;;
31224;SDS011;17847;31.524;74.366;2023-08-21T00:48:16;45.30;;;39.60;;
31224;SDS011;17847;31.524;74.366;2023-08-21T00:50:46;47.63;;;39.42;;
31224;SDS011;17847;31.524;74.366;2023-08-21T00:53:17;45.80;;;39.30;;
31224;SDS011;17847;31.524;74.366;2023-08-21T00:55:47;51.75;;;39.95;;
31224;SDS011;17847;31.524;74.366;2023-08-21T00:58:16;48.70;;;39.08;;
31224;SDS011;17847;31.524;74.366;2023-08-21T01:00:46;46.80;;;38.90;;
31224;SDS011;17847;31.524;74.366;2023-08-21T01:03:19;47.08;;;40.15;;
31224;SDS011;17847;31.524;74.366;2023-08-21T01:05:49;49.25;;;39.17;;
31224;SDS011;17847;31.524;74.366;2023-08-21T01:08:21;47.40;;;38.10;;
31224;SDS011;17847;31.524;74.366;2023-08-21T01:14:03;47.25;;;37.95;;
31224;SDS011;17847;31.524;74.366;2023-08-21T01:16:43;46.28;;;38.25;;
31224;SDS011;17847;31.524;74.366;2023-08-21T01:19:59;44.78;;;38.08;;
31224;SDS011;17847;31.524;74.366;2023-08-21T01:22:11;42.83;;;37.58;;
31224;SDS011;17847;31.524;74.366;2023-08-21T01:24:41;46.97;;;37.38;;
31224;SDS011;17847;31.524;74.366;2023-08-21T01:27:10;50.13;;;38.45;;
31224;SDS011;17847;31.524;74.366;2023-08-21T01:29:44;48.90;;;37.25;;
31224;SDS011;17847;31.524;74.366;2023-08-21T01:35:17;42.42;;;36.13;;
31224;SDS011;17847;31.524;74.366;2023-08-21T01:37:49;38.53;;;34.33;;
31224;SDS011;17847;31.524;74.366;2023-08-21T01:40:22;38.92;;;33.75;;
31224;SDS011;17847;31.524;74.366;2023-08-21T01:42:53;37.90;;;33.10;;
31224;SDS011;17847;31.524;74.366;2023-08-21T01:45:22;38.78;;;34.47;;
31224;SDS011;17847;31.524;74.366;2023-08-21T01:47:52;41.35;;;34.20;;
31224;SDS011;17847;31.524;74.366;2023-08-21T01:50:21;38.72;;;33.97;;
31224;SDS011;17847;31.524;74.366;2023-08-21T01:52:51;38.95;;;31.48;;
31224;SDS011;17847;31.524;74.366;2023-08-21T01:55:20;35.17;;;31.33;;
31224;SDS011;17847;31.524;74.366;2023-08-21T01:57:49;35.45;;;31.65;;
31224;SDS011;17847;31.524;74.366;2023-08-21T02:00:19;33.25;;;29.65;;
31224;SDS011;17847;31.524;74.366;2023-08-21T02:02:48;32.78;;;29.15;;
31224;SDS011;17847;31.524;74.366;2023-08-21T02:05:18;31.38;;;27.17;;
31224;SDS011;17847;31.524;74.366;2023-08-21T02:07:48;31.95;;;28.02;;
31224;SDS011;17847;31.524;74.366;2023-08-21T02:10:17;32.95;;;27.67;;
31224;SDS011;17847;31.524;74.366;2023-08-21T02:13:08;31.75;;;27.77;;
31224;SDS011;17847;31.524;74.366;2023-08-21T02:15:57;33.22;;;27.95;;
31224;SDS011;17847;31.524;74.366;2023-08-21T02:18:47;32.83;;;26.77;;
31224;SDS011;17847;31.524;74.366;2023-08-21T02:21:39;30.88;;;27.67;;
31224;SDS011;17847;31.524;74.366;2023-08-21T02:24:29;29.13;;;25.92;;
31224;SDS011;17847;31.524;74.366;2023-08-21T02:27:19;28.02;;;25.08;;
31224;SDS011;17847;31.524;74.366;2023-08-21T02:30:09;30.92;;;26.70;;
31224;SDS011;17847;31.524;74.366;2023-08-21T02:32:59;30.45;;;27.17;;
31224;SDS011;17847;31.524;74.366;2023-08-21T02:35:49;39.10;;;28.10;;
31224;SDS011;17847;31.524;74.366;2023-08-21T02:38:40;32.75;;;26.73;;
31224;SDS011;17847;31.524;74.366;2023-08-21T02:41:30;33.22;;;27.00;;
31224;SDS011;17847;31.524;74.366;2023-08-21T02:44:20;36.17;;;27.73;;
31224;SDS011;17847;31.524;74.366;2023-08-21T02:47:10;37.78;;;28.38;;
31224;SDS011;17847;31.524;74.366;2023-08-21T02:50:00;35.58;;;28.08;;
31224;SDS011;17847;31.524;74.366;2023-08-21T02:52:51;34.67;;;28.02;;
31224;SDS011;17847;31.524;74.366;2023-08-21T02:55:40;36.17;;;27.13;;
31224;SDS011;17847;31.524;74.366;2023-08-21T02:58:32;30.83;;;27.02;;
31224;SDS011;17847;31.524;74.366;2023-08-21T03:01:22;32.22;;;24.38;;
31224;SDS011;17847;31.524;74.366;2023-08-21T03:04:06;29.85;;;25.85;;
31224;SDS011;17847;31.524;74.366;2023-08-21T03:06:36;33.17;;;26.63;;
31224;SDS011;17847;31.524;74.366;2023-08-21T03:09:05;29.15;;;25.42;;
31224;SDS011;17847;31.524;74.366;2023-08-21T03:11:35;30.33;;;26.27;;
31224;SDS011;17847;31.524;74.366;2023-08-21T03:14:05;31.10;;;26.58;;
31224;SDS011;17847;31.524;74.366;2023-08-21T03:16:34;32.03;;;26.65;;
31224;SDS011;17847;31.524;74.366;2023-08-21T03:19:04;38.47;;;30.13;;
31224;SDS011;17847;31.524;74.366;2023-08-21T03:21:34;34.13;;;29.85;;
31224;SDS011;17847;31.524;74.366;2023-08-21T03:24:05;38.88;;;29.38;;
31224;SDS011;17847;31.524;74.366;2023-08-21T03:26:36;33.95;;;28.48;;
31224;SDS011;17847;31.524;74.366;2023-08-21T03:29:05;29.23;;;26.08;;
31224;SDS011;17847;31.524;74.366;2023-08-21T03:31:35;36.83;;;30.70;;
31224;SDS011;17847;31.524;74.366;2023-08-21T03:34:04;46.47;;;31.05;;
31224;SDS011;17847;31.524;74.366;2023-08-21T03:36:35;36.65;;;31.42;;
31224;SDS011;17847;31.524;74.366;2023-08-21T03:41:42;36.80;;;30.02;;
31224;SDS011;17847;31.524;74.366;2023-08-21T03:44:12;40.80;;;31.48;;
31224;SDS011;17847;31.524;74.366;2023-08-21T03:46:42;39.53;;;31.63;;
31224;SDS011;17847;31.524;74.366;2023-08-21T03:49:12;39.13;;;32.22;;
31224;SDS011;17847;31.524;74.366;2023-08-21T03:51:41;35.08;;;30.98;;
31224;SDS011;17847;31.524;74.366;2023-08-21T03:54:10;42.50;;;30.58;;
31224;SDS011;17847;31.524;74.366;2023-08-21T03:56:40;27.80;;;24.70;;
31224;SDS011;17847;31.524;74.366;2023-08-21T03:59:10;28.83;;;22.77;;
31224;SDS011;17847;31.524;74.366;2023-08-21T04:01:40;25.67;;;22.95;;
31224;SDS011;17847;31.524;74.366;2023-08-21T04:04:09;24.45;;;21.85;;
31224;SDS011;17847;31.524;74.366;2023-08-21T04:06:39;27.35;;;22.65;;
31224;SDS011;17847;31.524;74.366;2023-08-21T04:09:08;25.55;;;22.85;;
31224;SDS011;17847;31.524;74.366;2023-08-21T04:11:39;26.70;;;22.77;;
31224;SDS011;17847;31.524;74.366;2023-08-21T04:14:08;23.13;;;20.73;;
31224;SDS011;17847;31.524;74.366;2023-08-21T04:16:37;41.65;;;22.20;;
31224;SDS011;17847;31.524;74.366;2023-08-21T04:19:07;23.05;;;19.95;;
31224;SDS011;17847;31.524;74.366;2023-08-21T04:21:37;22.65;;;20.35;;
31224;SDS011;17847;31.524;74.366;2023-08-21T04:24:06;25.75;;;21.67;;
31224;SDS011;17847;31.524;74.366;2023-08-21T04:26:36;25.15;;;22.52;;
31224;SDS011;17847;31.524;74.366;2023-08-21T04:29:06;28.58;;;22.85;;
31224;SDS011;17847;31.524;74.366;2023-08-21T04:31:36;28.77;;;23.67;;
31224;SDS011;17847;31.524;74.366;2023-08-21T04:34:07;26.17;;;23.42;;
31224;SDS011;17847;31.524;74.366;2023-08-21T04:36:36;28.30;;;22.50;;
31224;SDS011;17847;31.524;74.366;2023-08-21T04:39:05;23.88;;;21.33;;
31224;SDS011;17847;31.524;74.366;2023-08-21T04:41:35;23.55;;;21.10;;
31224;SDS011;17847;31.524;74.366;2023-08-21T04:44:05;22.85;;;19.85;;
31224;SDS011;17847;31.524;74.366;2023-08-21T04:46:35;19.63;;;17.73;;
31224;SDS011;17847;31.524;74.366;2023-08-21T04:49:05;22.98;;;18.83;;
31224;SDS011;17847;31.524;74.366;2023-08-21T04:51:34;22.00;;;19.80;;
31224;SDS011;17847;31.524;74.366;2023-08-21T04:54:04;21.20;;;18.95;;
31224;SDS011;17847;31.524;74.366;2023-08-21T04:56:34;20.42;;;17.88;;
31224;SDS011;17847;31.524;74.366;2023-08-21T04:59:03;23.05;;;19.10;;
31224;SDS011;17847;31.524;74.366;2023-08-21T05:01:34;25.00;;;19.13;;
31224;SDS011;17847;31.524;74.366;2023-08-21T05:04:03;21.38;;;19.17;;
31224;SDS011;17847;31.524;74.366;2023-08-21T05:06:34;20.75;;;18.42;;
31224;SDS011;17847;31.524;74.366;2023-08-21T05:09:03;22.80;;;19.42;;
31224;SDS011;17847;31.524;74.366;2023-08-21T05:11:33;23.48;;;20.30;;
31224;SDS011;17847;31.524;74.366;2023-08-21T05:14:04;22.15;;;19.52;;
31224;SDS011;17847;31.524;74.366;2023-08-21T05:16:34;26.63;;;20.55;;
31224;SDS011;17847;31.524;74.366;2023-08-21T05:19:04;23.15;;;20.27;;
31224;SDS011;17847;31.524;74.366;2023-08-21T05:21:33;24.85;;;20.95;;
31224;SDS011;17847;31.524;74.366;2023-08-21T05:24:03;23.55;;;19.20;;
31224;SDS011;17847;31.524;74.366;2023-08-21T05:26:35;23.15;;;20.45;;
31224;SDS011;17847;31.524;74.366;2023-08-21T05:29:06;24.33;;;19.90;;
31224;SDS011;17847;31.524;74.366;2023-08-21T05:31:35;28.60;;;21.83;;
31224;SDS011;17847;31.524;74.366;2023-08-21T05:34:05;23.85;;;21.27;;
31224;SDS011;17847;31.524;74.366;2023-08-21T05:36:35;20.98;;;18.50;;
31224;SDS011;17847;31.524;74.366;2023-08-21T05:39:05;18.15;;;16.45;;
31224;SDS011;17847;31.524;74.366;2023-08-21T05:41:37;20.40;;;17.40;;
31224;SDS011;17847;31.524;74.366;2023-08-21T05:44:06;18.02;;;16.35;;
31224;SDS011;17847;31.524;74.366;2023-08-21T05:46:36;17.10;;;15.38;;
31224;SDS011;17847;31.524;74.366;2023-08-21T05:49:06;15.73;;;14.18;;
31224;SDS011;17847;31.524;74.366;2023-08-21T05:51:36;16.92;;;15.27;;
31224;SDS011;17847;31.524;74.366;2023-08-21T05:54:07;18.20;;;16.38;;
31224;SDS011;17847;31.524;74.366;2023-08-21T05:56:39;20.45;;;18.33;;
31224;SDS011;17847;31.524;74.366;2023-08-21T05:59:09;23.73;;;17.27;;
31224;SDS011;17847;31.524;74.366;2023-08-21T06:01:40;20.42;;;18.25;;
31224;SDS011;17847;31.524;74.366;2023-08-21T06:04:10;22.80;;;19.73;;
31224;SDS011;17847;31.524;74.366;2023-08-21T06:06:49;23.92;;;20.45;;
31224;SDS011;17847;31.524;74.366;2023-08-21T06:09:19;29.08;;;24.70;;
31224;SDS011;17847;31.524;74.366;2023-08-21T06:11:48;28.17;;;25.23;;
31224;SDS011;17847;31.524;74.366;2023-08-21T06:14:19;28.17;;;25.38;;
31224;SDS011;17847;31.524;74.366;2023-08-21T06:16:48;30.65;;;25.48;;
31224;SDS011;17847;31.524;74.366;2023-08-21T06:19:18;28.20;;;25.02;;
31224;SDS011;17847;31.524;74.366;2023-08-21T06:21:47;28.38;;;25.42;;
31224;SDS011;17847;31.524;74.366;2023-08-21T06:24:16;31.05;;;26.25;;
31224;SDS011;17847;31.524;74.366;2023-08-21T06:26:51;32.60;;;27.77;;
31224;SDS011;17847;31.524;74.366;2023-08-21T06:29:21;29.75;;;26.60;;
31224;SDS011;17847;31.524;74.366;2023-08-21T06:31:51;27.98;;;24.98;;
31224;SDS011;17847;31.524;74.366;2023-08-21T06:34:21;28.10;;;25.08;;
31224;SDS011;17847;31.524;74.366;2023-08-21T06:36:51;30.17;;;25.15;;
31224;SDS011;17847;31.524;74.366;2023-08-21T06:39:20;35.17;;;25.20;;
31224;SDS011;17847;31.524;74.366;2023-08-21T06:41:50;28.35;;;23.30;;
31224;SDS011;17847;31.524;74.366;2023-08-21T06:44:19;28.40;;;22.65;;
31224;SDS011;17847;31.524;74.366;2023-08-21T06:46:49;23.90;;;21.38;;
31224;SDS011;17847;31.524;74.366;2023-08-21T06:49:19;24.92;;;22.30;;
31224;SDS011;17847;31.524;74.366;2023-08-21T06:51:48;25.40;;;21.58;;
31224;SDS011;17847;31.524;74.366;2023-08-21T06:54:18;25.75;;;22.25;;
31224;SDS011;17847;31.524;74.366;2023-08-21T06:56:47;22.77;;;19.83;;
31224;SDS011;17847;31.524;74.366;2023-08-21T06:59:17;22.58;;;19.75;;
31224;SDS011;17847;31.524;74.366;2023-08-21T07:01:46;23.15;;;20.35;;
31224;SDS011;17847;31.524;74.366;2023-08-21T07:04:15;22.20;;;20.10;;
31224;SDS011;17847;31.524;74.366;2023-08-21T07:06:45;22.90;;;20.50;;
31224;SDS011;17847;31.524;74.366;2023-08-21T07:09:15;23.55;;;20.25;;
31224;SDS011;17847;31.524;74.366;2023-08-21T07:11:44;23.60;;;20.75;;
31224;SDS011;17847;31.524;74.366;2023-08-21T07:14:13;22.50;;;19.20;;
31224;SDS011;17847;31.524;74.366;2023-08-21T07:16:43;22.70;;;19.20;;
31224;SDS011;17847;31.524;74.366;2023-08-21T07:19:13;22.55;;;20.15;;
31224;SDS011;17847;31.524;74.366;2023-08-21T07:21:42;23.23;;;19.90;;
31224;SDS011;17847;31.524;74.366;2023-08-21T07:24:11;22.45;;;20.10;;
31224;SDS011;17847;31.524;74.366;2023-08-21T07:26:42;21.92;;;19.67;;
31224;SDS011;17847;31.524;74.366;2023-08-21T07:29:11;22.92;;;19.90;;
31224;SDS011;17847;31.524;74.366;2023-08-21T07:31:40;33.53;;;19.67;;
31224;SDS011;17847;31.524;74.366;2023-08-21T07:34:10;24.50;;;19.77;;
31224;SDS011;17847;31.524;74.366;2023-08-21T07:36:39;22.85;;;20.65;;
31224;SDS011;17847;31.524;74.366;2023-08-21T07:39:09;22.63;;;20.45;;
31224;SDS011;17847;31.524;74.366;2023-08-21T07:41:38;25.70;;;21.02;;
31224;SDS011;17847;31.524;74.366;2023-08-21T07:44:07;26.38;;;22.10;;
31224;SDS011;17847;31.524;74.366;2023-08-21T07:46:37;24.05;;;20.65;;
31224;SDS011;17847;31.524;74.366;2023-08-21T07:49:06;24.27;;;20.52;;
31224;SDS011;17847;31.524;74.366;2023-08-21T07:51:36;23.15;;;20.70;;
31224;SDS011;17847;31.524;74.366;2023-08-21T07:54:06;24.45;;;21.88;;
31224;SDS011;17847;31.524;74.366;2023-08-21T07:56:36;26.42;;;22.15;;
31224;SDS011;17847;31.524;74.366;2023-08-21T07:59:08;27.70;;;22.30;;
31224;SDS011;17847;31.524;74.366;2023-08-21T08:01:37;23.65;;;21.00;;
31224;SDS011;17847;31.524;74.366;2023-08-21T08:04:07;25.58;;;21.77;;
31224;SDS011;17847;31.524;74.366;2023-08-21T08:06:39;26.60;;;22.00;;
31224;SDS011;17847;31.524;74.366;2023-08-21T08:09:08;23.70;;;21.33;;
31224;SDS011;17847;31.524;74.366;2023-08-21T08:11:38;23.60;;;21.38;;
31224;SDS011;17847;31.524;74.366;2023-08-21T08:14:08;25.65;;;20.38;;
31224;SDS011;17847;31.524;74.366;2023-08-21T08:16:37;26.73;;;22.13;;
31224;SDS011;17847;31.524;74.366;2023-08-21T08:19:07;26.67;;;21.30;;
31224;SDS011;17847;31.524;74.366;2023-08-21T08:21:36;23.92;;;21.42;;
31224;SDS011;17847;31.524;74.366;2023-08-21T08:24:05;23.05;;;20.73;;
31224;SDS011;17847;31.524;74.366;2023-08-21T08:26:34;22.83;;;20.48;;
31224;SDS011;17847;31.524;74.366;2023-08-21T08:29:04;21.70;;;19.40;;
31224;SDS011;17847;31.524;74.366;2023-08-21T08:31:33;22.15;;;19.83;;
31224;SDS011;17847;31.524;74.366;2023-08-21T08:34:03;25.77;;;21.27;;
31224;SDS011;17847;31.524;74.366;2023-08-21T08:36:32;24.05;;;21.60;;
31224;SDS011;17847;31.524;74.366;2023-08-21T08:39:02;25.25;;;21.38;;
31224;SDS011;17847;31.524;74.366;2023-08-21T08:44:08;25.27;;;21.60;;
31224;SDS011;17847;31.524;74.366;2023-08-21T08:46:37;25.67;;;22.85;;
31224;SDS011;17847;31.524;74.366;2023-08-21T08:49:06;25.52;;;21.67;;
31224;SDS011;17847;31.524;74.366;2023-08-21T08:51:36;30.13;;;22.60;;
31224;SDS011;17847;31.524;74.366;2023-08-21T08:54:09;31.10;;;23.17;;
31224;SDS011;17847;31.524;74.366;2023-08-21T08:56:40;29.17;;;22.58;;
31224;SDS011;17847;31.524;74.366;2023-08-21T08:59:09;31.77;;;23.83;;
31224;SDS011;17847;31.524;74.366;2023-08-21T09:01:39;27.65;;;21.95;;
31224;SDS011;17847;31.524;74.366;2023-08-21T09:04:10;27.75;;;23.10;;
31224;SDS011;17847;31.524;74.366;2023-08-21T09:06:40;28.95;;;21.27;;
31224;SDS011;17847;31.524;74.366;2023-08-21T09:09:09;24.58;;;21.85;;
31224;SDS011;17847;31.524;74.366;2023-08-21T09:11:43;25.65;;;22.27;;
31224;SDS011;17847;31.524;74.366;2023-08-21T09:14:16;28.63;;;22.67;;
31224;SDS011;17847;31.524;74.366;2023-08-21T09:16:59;25.67;;;21.30;;
31224;SDS011;17847;31.524;74.366;2023-08-21T09:19:35;25.40;;;22.50;;
31224;SDS011;17847;31.524;74.366;2023-08-21T09:22:11;23.40;;;21.00;;
31224;SDS011;17847;31.524;74.366;2023-08-21T09:25:01;22.65;;;19.85;;
31224;SDS011;17847;31.524;74.366;2023-08-21T09:27:39;21.98;;;19.60;;
31224;SDS011;17847;31.524;74.366;2023-08-21T09:30:10;24.15;;;19.73;;
31224;SDS011;17847;31.524;74.366;2023-08-21T09:32:59;23.23;;;19.73;;
31224;SDS011;17847;31.524;74.366;2023-08-21T09:35:32;22.75;;;18.90;;
31224;SDS011;17847;31.524;74.366;2023-08-21T09:38:02;25.48;;;18.52;;
31224;SDS011;17847;31.524;74.366;2023-08-21T09:40:33;21.57;;;19.27;;
31224;SDS011;17847;31.524;74.366;2023-08-21T09:43:03;22.15;;;17.90;;
31224;SDS011;17847;31.524;74.366;2023-08-21T09:45:33;19.55;;;17.52;;
31224;SDS011;17847;31.524;74.366;2023-08-21T09:48:03;24.10;;;18.08;;
31224;SDS011;17847;31.524;74.366;2023-08-21T09:50:33;20.63;;;18.38;;
31224;SDS011;17847;31.524;74.366;2023-08-21T09:53:05;24.85;;;17.77;;
31224;SDS011;17847;31.524;74.366;2023-08-21T09:55:36;22.27;;;17.90;;
31224;SDS011;17847;31.524;74.366;2023-08-21T09:58:09;22.48;;;16.55;;
31224;SDS011;17847;31.524;74.366;2023-08-21T10:00:39;22.40;;;17.80;;
31224;SDS011;17847;31.524;74.366;2023-08-21T10:03:10;19.95;;;15.90;;
31224;SDS011;17847;31.524;74.366;2023-08-21T10:05:40;22.65;;;14.98;;
31224;SDS011;17847;31.524;74.366;2023-08-21T10:08:11;21.55;;;15.95;;
31224;SDS011;17847;31.524;74.366;2023-08-21T10:10:43;24.20;;;15.07;;
31224;SDS011;17847;31.524;74.366;2023-08-21T10:13:13;22.20;;;16.45;;
31224;SDS011;17847;31.524;74.366;2023-08-21T10:15:43;22.98;;;15.00;;
31224;SDS011;17847;31.524;74.366;2023-08-21T10:18:22;26.98;;;16.50;;
31224;SDS011;17847;31.524;74.366;2023-08-21T10:20:53;20.15;;;16.42;;
31224;SDS011;17847;31.524;74.366;2023-08-21T10:23:27;18.55;;;15.60;;
31224;SDS011;17847;31.524;74.366;2023-08-21T10:25:58;17.33;;;14.88;;
31224;SDS011;17847;31.524;74.366;2023-08-21T10:28:48;18.40;;;15.70;;
31224;SDS011;17847;31.524;74.366;2023-08-21T10:34:07;21.00;;;16.27;;
31224;SDS011;17847;31.524;74.366;2023-08-21T10:39:14;20.67;;;16.63;;
31224;SDS011;17847;31.524;74.366;2023-08-21T10:47:21;21.67;;;16.77;;
31224;SDS011;17847;31.524;74.366;2023-08-21T10:49:53;26.40;;;16.65;;
31224;SDS011;17847;31.524;74.366;2023-08-21T10:52:24;22.80;;;16.42;;
31224;SDS011;17847;31.524;74.366;2023-08-21T10:54:56;19.13;;;15.88;;
31224;SDS011;17847;31.524;74.366;2023-08-21T10:57:30;24.77;;;17.10;;
31224;SDS011;17847;31.524;74.366;2023-08-21T11:00:01;22.42;;;16.13;;
31224;SDS011;17847;31.524;74.366;2023-08-21T11:02:38;30.80;;;17.25;;
31224;SDS011;17847;31.524;74.366;2023-08-21T11:05:10;33.47;;;18.23;;
31224;SDS011;17847;31.524;74.366;2023-08-21T11:07:41;26.45;;;20.55;;
31224;SDS011;17847;31.524;74.366;2023-08-21T11:10:16;29.40;;;24.73;;
31224;SDS011;17847;31.524;74.366;2023-08-21T11:15:26;30.38;;;27.00;;
31224;SDS011;17847;31.524;74.366;2023-08-21T11:17:58;31.98;;;27.10;;
31224;SDS011;17847;31.524;74.366;2023-08-21T11:20:34;30.95;;;27.52;;
31224;SDS011;17847;31.524;74.366;2023-08-21T11:23:05;30.02;;;26.92;;
31224;SDS011;17847;31.524;74.366;2023-08-21T11:25:38;31.98;;;27.35;;
31224;SDS011;17847;31.524;74.366;2023-08-21T11:28:08;31.33;;;28.10;;
31224;SDS011;17847;31.524;74.366;2023-08-21T11:30:37;27.80;;;24.90;;
31224;SDS011;17847;31.524;74.366;2023-08-21T11:33:07;31.73;;;27.08;;
31224;SDS011;17847;31.524;74.366;2023-08-21T11:35:38;29.02;;;25.88;;
31224;SDS011;17847;31.524;74.366;2023-08-21T11:38:18;29.83;;;26.63;;
31224;SDS011;17847;31.524;74.366;2023-08-21T11:40:53;28.13;;;25.33;;
31224;SDS011;17847;31.524;74.366;2023-08-21T11:43:39;30.80;;;27.52;;
31224;SDS011;17847;31.524;74.366;2023-08-21T11:46:10;31.63;;;25.38;;
31224;SDS011;17847;31.524;74.366;2023-08-21T11:48:40;34.38;;;26.55;;
31224;SDS011;17847;31.524;74.366;2023-08-21T11:51:10;28.83;;;25.90;;
31224;SDS011;17847;31.524;74.366;2023-08-21T11:53:41;33.40;;;26.92;;
31224;SDS011;17847;31.524;74.366;2023-08-21T11:56:15;37.15;;;27.88;;
31224;SDS011;17847;31.524;74.366;2023-08-21T11:58:48;27.60;;;24.77;;
31224;SDS011;17847;31.524;74.366;2023-08-21T12:01:19;29.50;;;25.00;;
31224;SDS011;17847;31.524;74.366;2023-08-21T12:03:50;27.55;;;24.85;;
31224;SDS011;17847;31.524;74.366;2023-08-21T12:06:23;28.38;;;25.38;;
31224;SDS011;17847;31.524;74.366;2023-08-21T12:09:01;31.17;;;24.17;;
31224;SDS011;17847;31.524;74.366;2023-08-21T12:11:32;27.97;;;24.97;;
31224;SDS011;17847;31.524;74.366;2023-08-21T12:14:04;27.73;;;24.77;;
31224;SDS011;17847;31.524;74.366;2023-08-21T12:16:34;27.83;;;22.08;;
31224;SDS011;17847;31.524;74.366;2023-08-21T12:19:03;27.38;;;22.48;;
31224;SDS011;17847;31.524;74.366;2023-08-21T12:21:33;25.80;;;23.08;;
31224;SDS011;17847;31.524;74.366;2023-08-21T12:24:04;24.65;;;22.05;;
31224;SDS011;17847;31.524;74.366;2023-08-21T12:26:34;25.52;;;22.90;;
31224;SDS011;17847;31.524;74.366;2023-08-21T12:29:15;24.58;;;22.05;;
31224;SDS011;17847;31.524;74.366;2023-08-21T12:31:46;25.27;;;21.63;;
31224;SDS011;17847;31.524;74.366;2023-08-21T12:34:15;24.35;;;21.83;;
31224;SDS011;17847;31.524;74.366;2023-08-21T12:36:46;25.08;;;22.50;;
31224;SDS011;17847;31.524;74.366;2023-08-21T12:39:15;24.80;;;22.20;;
31224;SDS011;17847;31.524;74.366;2023-08-21T12:41:45;27.23;;;23.13;;
31224;SDS011;17847;31.524;74.366;2023-08-21T12:44:15;24.77;;;21.95;;
31224;SDS011;17847;31.524;74.366;2023-08-21T12:46:44;24.52;;;22.00;;
31224;SDS011;17847;31.524;74.366;2023-08-21T12:49:14;25.90;;;23.02;;
31224;SDS011;17847;31.524;74.366;2023-08-21T12:51:44;23.33;;;20.65;;
31224;SDS011;17847;31.524;74.366;2023-08-21T12:54:13;30.13;;;22.67;;
31224;SDS011;17847;31.524;74.366;2023-08-21T12:56:43;24.42;;;21.85;;
31224;SDS011;17847;31.524;74.366;2023-08-21T12:59:15;24.73;;;22.23;;
31224;SDS011;17847;31.524;74.366;2023-08-21T13:01:46;25.92;;;21.90;;
31224;SDS011;17847;31.524;74.366;2023-08-21T13:04:16;25.35;;;21.75;;
31224;SDS011;17847;31.524;74.366;2023-08-21T13:06:46;29.25;;;20.67;;
31224;SDS011;17847;31.524;74.366;2023-08-21T13:09:15;23.25;;;20.90;;
31224;SDS011;17847;31.524;74.366;2023-08-21T13:11:45;27.55;;;20.80;;
31224;SDS011;17847;31.524;74.366;2023-08-21T13:14:14;22.88;;;19.90;;
31224;SDS011;17847;31.524;74.366;2023-08-21T13:16:44;22.38;;;19.08;;
31224;SDS011;17847;31.524;74.366;2023-08-21T13:19:13;22.33;;;19.80;;
31224;SDS011;17847;31.524;74.366;2023-08-21T13:21:43;25.23;;;21.23;;
31224;SDS011;17847;31.524;74.366;2023-08-21T13:24:12;22.38;;;19.90;;
31224;SDS011;17847;31.524;74.366;2023-08-21T13:26:42;21.73;;;19.55;;
31224;SDS011;17847;31.524;74.366;2023-08-21T13:29:12;24.67;;;21.70;;
31224;SDS011;17847;31.524;74.366;2023-08-21T13:31:42;23.00;;;20.48;;
31224;SDS011;17847;31.524;74.366;2023-08-21T13:34:11;23.45;;;19.88;;
31224;SDS011;17847;31.524;74.366;2023-08-21T13:36:40;21.15;;;18.63;;
31224;SDS011;17847;31.524;74.366;2023-08-21T13:39:10;25.13;;;18.80;;
31224;SDS011;17847;31.524;74.366;2023-08-21T13:41:41;21.95;;;19.65;;
31224;SDS011;17847;31.524;74.366;2023-08-21T13:44:11;24.63;;;20.17;;
31224;SDS011;17847;31.524;74.366;2023-08-21T13:46:40;22.05;;;19.20;;
31224;SDS011;17847;31.524;74.366;2023-08-21T13:49:10;21.27;;;19.15;;
31224;SDS011;17847;31.524;74.366;2023-08-21T13:51:39;20.35;;;18.25;;
31224;SDS011;17847;31.524;74.366;2023-08-21T13:54:08;22.23;;;18.35;;
31224;SDS011;17847;31.524;74.366;2023-08-21T13:56:37;19.92;;;18.02;;
31224;SDS011;17847;31.524;74.366;2023-08-21T13:59:07;19.35;;;17.38;;
31224;SDS011;17847;31.524;74.366;2023-08-21T14:01:36;20.20;;;18.08;;
31224;SDS011;17847;31.524;74.366;2023-08-21T14:04:06;20.48;;;18.20;;
31224;SDS011;17847;31.524;74.366;2023-08-21T14:06:35;22.08;;;17.25;;
31224;SDS011;17847;31.524;74.366;2023-08-21T14:09:05;21.35;;;17.42;;
31224;SDS011;17847;31.524;74.366;2023-08-21T14:11:35;19.25;;;17.27;;
31224;SDS011;17847;31.524;74.366;2023-08-21T14:14:04;19.30;;;17.30;;
31224;SDS011;17847;31.524;74.366;2023-08-21T14:16:34;18.88;;;16.98;;
31224;SDS011;17847;31.524;74.366;2023-08-21T14:19:07;19.30;;;17.27;;
31224;SDS011;17847;31.524;74.366;2023-08-21T14:21:36;19.95;;;17.77;;
31224;SDS011;17847;31.524;74.366;2023-08-21T14:24:06;19.88;;;17.80;;
31224;SDS011;17847;31.524;74.366;2023-08-21T14:26:36;22.10;;;16.48;;
31224;SDS011;17847;31.524;74.366;2023-08-21T14:29:05;21.85;;;17.65;;
31224;SDS011;17847;31.524;74.366;2023-08-21T14:31:34;20.67;;;16.77;;
31224;SDS011;17847;31.524;74.366;2023-08-21T14:34:04;19.33;;;16.05;;
31224;SDS011;17847;31.524;74.366;2023-08-21T14:36:34;18.92;;;16.42;;
31224;SDS011;17847;31.524;74.366;2023-08-21T14:39:04;20.83;;;16.98;;
31224;SDS011;17847;31.524;74.366;2023-08-21T14:41:34;18.38;;;16.50;;
31224;SDS011;17847;31.524;74.366;2023-08-21T14:44:04;19.60;;;17.55;;
31224;SDS011;17847;31.524;74.366;2023-08-21T14:46:34;22.52;;;18.63;;
31224;SDS011;17847;31.524;74.366;2023-08-21T14:49:09;23.25;;;16.90;;
31224;SDS011;17847;31.524;74.366;2023-08-21T14:51:38;18.38;;;16.17;;
31224;SDS011;17847;31.524;74.366;2023-08-21T14:54:08;18.83;;;17.02;;
31224;SDS011;17847;31.524;74.366;2023-08-21T14:56:38;19.23;;;17.23;;
31224;SDS011;17847;31.524;74.366;2023-08-21T14:59:08;25.17;;;18.42;;